Time;durP1;ratioP1;P1;durP2;ratioP2;P2;SDS_P1;SDS_P2;PMS_P1;PMS_P2;Temp;Humidity;BMP_temperature;BMP_pressure;BME280_temperature;BME280_humidity;BME280_pressure;Samples;Min_cycle;Max_cycle;Signal;HPM_P1;HPM_P2
2021/11/21 00:01:58;;;;;;;1.37;0.70;;;10.30;99.90;;;;;;4400947;32;20442;-69
2021/11/21 00:04:23;;;;;;;1.95;1.33;;;10.30;99.90;;;;;;4397082;32;20085;-69
2021/11/21 00:06:49;;;;;;;1.62;1.08;;;10.30;99.90;;;;;;4394842;32;20082;-69
2021/11/21 00:09:14;;;;;;;0.82;0.80;;;10.30;99.90;;;;;;4399552;32;20162;-71
2021/11/21 00:11:43;;;;;;;5.15;1.60;;;10.30;99.90;;;;;;4398694;32;20082;-69
2021/11/21 00:14:09;;;;;;;1.45;1.05;;;10.30;99.90;;;;;;4396187;32;20125;-70
2021/11/21 00:16:35;;;;;;;1.45;0.85;;;10.30;99.90;;;;;;4395257;32;20556;-70
2021/11/21 00:19:01;;;;;;;5.70;2.50;;;10.30;99.90;;;;;;4397531;32;20094;-68
2021/11/21 00:21:27;;;;;;;1.87;0.98;;;10.30;99.90;;;;;;4397339;32;20118;-70
2021/11/21 00:23:54;;;;;;;3.45;1.02;;;10.30;99.90;;;;;;4396844;32;20187;-69
2021/11/21 00:26:20;;;;;;;4.45;1.25;;;10.40;99.90;;;;;;4399453;32;20135;-70
2021/11/21 00:28:45;;;;;;;2.15;1.48;;;10.30;99.90;;;;;;4393254;32;20132;-69
2021/11/21 00:31:11;;;;;;;2.28;1.12;;;10.30;99.90;;;;;;4392836;32;20323;-70
2021/11/21 00:33:36;;;;;;;0.82;0.80;;;10.20;99.90;;;;;;4396178;32;20062;-69
2021/11/21 00:36:03;;;;;;;0.62;0.62;;;10.30;99.90;;;;;;4396027;32;20234;-70
2021/11/21 00:38:29;;;;;;;0.82;0.77;;;10.30;99.90;;;;;;4395895;32;20113;-70
2021/11/21 00:40:55;;;;;;;0.98;0.90;;;10.20;99.90;;;;;;4397572;32;20532;-70
2021/11/21 00:43:21;;;;;;;1.00;0.95;;;10.20;99.90;;;;;;4397577;32;20054;-70
2021/11/21 00:45:47;;;;;;;1.70;0.98;;;10.20;99.90;;;;;;4396921;32;20062;-69
2021/11/21 00:48:19;;;;;;;0.60;0.60;;;10.20;99.90;;;;;;4394021;32;20081;-69
2021/11/21 00:50:45;;;;;;;3.35;1.08;;;10.20;99.90;;;;;;4395706;32;20153;-69
2021/11/21 00:53:11;;;;;;;4.40;1.45;;;10.10;99.90;;;;;;4398721;32;20662;-69
2021/11/21 00:55:39;;;;;;;1.75;1.20;;;10.10;99.90;;;;;;4393877;32;20136;-68
2021/11/21 00:58:09;;;;;;;4.03;1.58;;;10.10;99.90;;;;;;4403345;32;20073;-70
2021/11/21 01:00:37;;;;;;;0.60;0.60;;;10.10;99.90;;;;;;4395096;32;20066;-70
2021/11/21 01:03:03;;;;;;;3.22;1.05;;;10.10;99.90;;;;;;4395599;32;20519;-69
2021/11/21 01:05:28;;;;;;;0.70;0.70;;;10.10;99.90;;;;;;4395810;32;20090;-70
2021/11/21 01:07:54;;;;;;;6.55;1.25;;;10.10;99.90;;;;;;4397614;32;20094;-69
2021/11/21 01:10:21;;;;;;;1.33;0.93;;;10.10;99.90;;;;;;4395301;32;20086;-69
2021/11/21 01:12:47;;;;;;;0.68;0.68;;;10.10;99.90;;;;;;4396551;32;20417;-69
2021/11/21 01:15:18;;;;;;;3.55;1.05;;;10.10;99.90;;;;;;4393611;32;21233;-70
2021/11/21 01:17:45;;;;;;;1.20;1.10;;;10.10;99.90;;;;;;4399018;32;20086;-69
2021/11/21 01:20:11;;;;;;;1.45;1.02;;;10.10;99.90;;;;;;4397353;32;20069;-69
2021/11/21 01:22:37;;;;;;;1.87;1.15;;;10.10;99.90;;;;;;4397743;32;20126;-69
2021/11/21 01:25:04;;;;;;;2.35;1.35;;;10.00;99.90;;;;;;4395396;32;20054;-69
2021/11/21 01:27:29;;;;;;;1.52;0.88;;;10.10;99.90;;;;;;4397919;32;20530;-69
2021/11/21 01:29:55;;;;;;;1.17;1.05;;;10.00;99.90;;;;;;4394668;32;20065;-69
2021/11/21 01:32:20;;;;;;;1.58;0.90;;;10.00;99.90;;;;;;4395248;32;20087;-70
2021/11/21 01:34:46;;;;;;;1.00;0.88;;;10.00;99.90;;;;;;4392615;32;20475;-69
2021/11/21 01:37:11;;;;;;;0.98;0.95;;;10.00;99.90;;;;;;4394216;32;20086;-69
2021/11/21 01:39:37;;;;;;;0.62;0.62;;;10.00;99.90;;;;;;4395064;32;20128;-69
2021/11/21 01:42:03;;;;;;;2.80;1.35;;;10.00;99.90;;;;;;4400776;32;20117;-69
2021/11/21 01:44:29;;;;;;;2.35;1.35;;;10.00;99.90;;;;;;4394376;32;20082;-70
2021/11/21 01:46:54;;;;;;;8.88;1.40;;;10.00;99.90;;;;;;4396715;32;20069;-70
2021/11/21 01:49:21;;;;;;;1.17;1.00;;;10.00;99.90;;;;;;4393011;32;20089;-70
2021/11/21 01:51:49;;;;;;;1.08;0.77;;;10.00;99.90;;;;;;4394182;32;20086;-70
2021/11/21 01:54:17;;;;;;;1.23;0.88;;;10.00;99.90;;;;;;4394380;32;20141;-70
2021/11/21 01:56:45;;;;;;;4.57;1.52;;;10.00;99.90;;;;;;4395950;32;20101;-70
2021/11/21 01:59:11;;;;;;;0.93;0.73;;;10.00;99.90;;;;;;4399832;32;20070;-71
2021/11/21 02:01:37;;;;;;;2.47;1.08;;;10.00;99.90;;;;;;4397780;32;20079;-69
2021/11/21 02:04:03;;;;;;;1.45;1.02;;;9.90;99.90;;;;;;4395094;32;20101;-70
2021/11/21 02:06:28;;;;;;;1.00;0.90;;;9.90;99.90;;;;;;4400689;32;20519;-70
2021/11/21 02:08:56;;;;;;;1.58;1.35;;;10.00;99.90;;;;;;4402374;32;20053;-69
2021/11/21 02:11:23;;;;;;;1.35;0.85;;;10.00;99.90;;;;;;4400463;32;20090;-70
2021/11/21 02:13:49;;;;;;;4.70;1.35;;;10.00;99.90;;;;;;4398305;32;20495;-70
2021/11/21 02:16:17;;;;;;;2.65;1.42;;;9.90;99.90;;;;;;4395441;32;20070;-70
2021/11/21 02:18:46;;;;;;;0.82;0.82;;;10.00;99.90;;;;;;4395564;32;20090;-69
2021/11/21 02:21:12;;;;;;;1.12;0.73;;;10.00;99.90;;;;;;4397766;32;20230;-69
2021/11/21 02:23:38;;;;;;;2.55;1.37;;;10.00;99.90;;;;;;4398593;32;20057;-70
2021/11/21 02:26:04;;;;;;;2.20;1.10;;;10.00;99.90;;;;;;4399401;32;20826;-71
2021/11/21 02:28:30;;;;;;;1.77;0.93;;;10.00;99.90;;;;;;4400502;32;20515;-69
2021/11/21 02:30:56;;;;;;;1.37;1.05;;;10.00;99.90;;;;;;4401160;32;20074;-69
2021/11/21 02:33:22;;;;;;;2.28;0.88;;;10.00;99.90;;;;;;4397300;32;20208;-70
2021/11/21 02:35:52;;;;;;;2.03;0.98;;;10.00;99.90;;;;;;4397397;32;20078;-70
2021/11/21 02:38:21;;;;;;;1.70;1.10;;;9.90;99.90;;;;;;4398230;32;20098;-70
2021/11/21 02:40:48;;;;;;;0.82;0.82;;;10.00;99.90;;;;;;4396166;32;20082;-71
2021/11/21 02:43:17;;;;;;;0.68;0.68;;;10.00;99.90;;;;;;4396087;32;20074;-69
2021/11/21 02:45:43;;;;;;;3.12;1.23;;;9.90;99.90;;;;;;4396129;32;20070;-70
2021/11/21 02:48:08;;;;;;;1.98;1.37;;;10.00;99.90;;;;;;4398319;32;20539;-70
2021/11/21 02:50:34;;;;;;;1.55;0.90;;;10.00;99.90;;;;;;4398854;32;20066;-70
2021/11/21 02:53:00;;;;;;;2.83;1.48;;;10.00;99.90;;;;;;4399554;32;20074;-69
2021/11/21 02:55:28;;;;;;;2.65;1.35;;;9.90;99.90;;;;;;4399973;32;20130;-70
2021/11/21 02:57:55;;;;;;;2.15;1.45;;;9.90;99.90;;;;;;4401052;32;20079;-70
2021/11/21 03:00:20;;;;;;;3.37;0.95;;;9.90;99.90;;;;;;4398250;32;20424;-70
2021/11/21 03:02:47;;;;;;;0.68;0.60;;;9.90;99.90;;;;;;4396941;32;20087;-69
2021/11/21 03:05:14;;;;;;;2.47;1.42;;;9.90;99.90;;;;;;4400661;32;20078;-70
2021/11/21 03:07:41;;;;;;;1.62;1.35;;;9.90;99.90;;;;;;4398235;32;20121;-69
2021/11/21 03:10:08;;;;;;;1.73;0.88;;;9.90;99.90;;;;;;4397103;32;20159;-70
2021/11/21 03:12:34;;;;;;;2.72;1.02;;;9.90;99.90;;;;;;4398321;32;20142;-70
2021/11/21 03:14:59;;;;;;;0.70;0.70;;;9.90;99.90;;;;;;4396571;32;20089;-69
2021/11/21 03:17:25;;;;;;;5.72;1.87;;;9.90;99.90;;;;;;4398603;32;20125;-69
2021/11/21 03:19:50;;;;;;;3.25;1.70;;;9.90;99.90;;;;;;4397664;32;20074;-69
2021/11/21 03:22:16;;;;;;;1.10;0.82;;;9.80;99.90;;;;;;4397801;32;20125;-68
2021/11/21 03:24:42;;;;;;;1.15;0.77;;;9.80;99.90;;;;;;4394051;32;20445;-70
2021/11/21 03:27:08;;;;;;;0.80;0.80;;;9.80;99.90;;;;;;4397361;32;20106;-70
2021/11/21 03:29:33;;;;;;;1.98;1.48;;;9.80;99.90;;;;;;4398864;32;20081;-70
2021/11/21 03:32:00;;;;;;;3.03;1.12;;;9.90;99.90;;;;;;4398810;32;20661;-70
2021/11/21 03:34:26;;;;;;;3.28;1.23;;;9.90;99.90;;;;;;4397302;32;20095;-70
2021/11/21 03:36:51;;;;;;;0.75;0.75;;;9.90;99.90;;;;;;4395430;32;20090;-69
2021/11/21 03:39:17;;;;;;;2.12;1.62;;;9.90;99.90;;;;;;4397344;32;20099;-69
2021/11/21 03:41:43;;;;;;;1.60;1.02;;;9.90;99.90;;;;;;4398759;32;20507;-69
2021/11/21 03:44:09;;;;;;;1.15;1.05;;;9.80;99.90;;;;;;4398077;32;20257;-69
2021/11/21 03:46:37;;;;;;;4.75;1.12;;;9.70;99.90;;;;;;4399962;32;20417;-70
2021/11/21 03:49:04;;;;;;;1.75;1.10;;;9.80;99.90;;;;;;4395275;32;20066;-70
2021/11/21 03:51:30;;;;;;;4.37;1.25;;;9.70;99.90;;;;;;4398432;32;20535;-69
2021/11/21 03:53:56;;;;;;;1.23;1.12;;;9.70;99.90;;;;;;4399308;32;20082;-69
2021/11/21 03:56:21;;;;;;;1.35;0.82;;;9.80;99.90;;;;;;4398833;32;20107;-69
2021/11/21 03:58:47;;;;;;;2.92;0.95;;;9.80;99.90;;;;;;4394017;32;20077;-69
2021/11/21 04:01:13;;;;;;;0.70;0.70;;;9.80;99.90;;;;;;4397931;32;20087;-69
2021/11/21 04:03:40;;;;;;;1.85;1.05;;;9.70;99.90;;;;;;4396013;32;20484;-70
2021/11/21 04:06:05;;;;;;;8.73;1.67;;;9.70;99.90;;;;;;4398273;32;20409;-70
2021/11/21 04:08:31;;;;;;;1.98;1.25;;;9.70;99.90;;;;;;4396654;32;20067;-70
2021/11/21 04:10:56;;;;;;;3.45;1.58;;;9.70;99.90;;;;;;4399288;32;20852;-68
2021/11/21 04:13:22;;;;;;;1.30;1.20;;;9.70;99.90;;;;;;4395662;32;20110;-69
2021/11/21 04:15:47;;;;;;;1.48;1.35;;;9.70;99.90;;;;;;4394800;32;20106;-68
2021/11/21 04:18:13;;;;;;;2.83;1.42;;;9.60;99.90;;;;;;4394576;32;20083;-70
2021/11/21 04:20:38;;;;;;;3.03;1.58;;;9.70;99.90;;;;;;4394742;32;20514;-70
2021/11/21 04:23:04;;;;;;;2.30;1.02;;;9.70;99.90;;;;;;4394377;32;20421;-69
2021/11/21 04:25:29;;;;;;;1.98;0.75;;;9.70;99.90;;;;;;4400273;32;20069;-69
2021/11/21 04:27:55;;;;;;;1.17;0.95;;;9.60;99.90;;;;;;4396654;32;20078;-70
2021/11/21 04:30:21;;;;;;;2.85;1.65;;;9.70;99.90;;;;;;4394923;32;20067;-69
2021/11/21 04:32:48;;;;;;;4.12;1.45;;;9.60;99.90;;;;;;4394817;32;84925;-69
2021/11/21 04:35:17;;;;;;;4.03;1.27;;;9.70;99.90;;;;;;4394625;32;20101;-70
2021/11/21 04:37:44;;;;;;;7.57;2.25;;;9.60;99.90;;;;;;4394816;32;20086;-69
2021/11/21 04:40:13;;;;;;;2.53;1.37;;;9.60;99.90;;;;;;4394847;32;20478;-69
2021/11/21 04:42:39;;;;;;;2.17;1.23;;;9.60;99.90;;;;;;4398066;32;20050;-69
2021/11/21 04:45:06;;;;;;;1.73;0.70;;;9.50;99.90;;;;;;4400937;32;20078;-70
2021/11/21 04:47:31;;;;;;;2.17;1.23;;;9.50;99.90;;;;;;4396863;32;20554;-69
2021/11/21 04:49:57;;;;;;;1.50;0.93;;;9.50;99.90;;;;;;4395892;32;20073;-69
2021/11/21 04:52:22;;;;;;;2.33;0.82;;;9.50;99.90;;;;;;4397916;32;20081;-69
2021/11/21 04:54:48;;;;;;;0.65;0.65;;;9.50;99.90;;;;;;4400206;32;20173;-69
2021/11/21 04:57:15;;;;;;;2.40;0.93;;;9.50;99.90;;;;;;4398746;32;20070;-70
2021/11/21 04:59:41;;;;;;;1.17;0.95;;;9.40;99.90;;;;;;4398099;32;20058;-69
2021/11/21 05:02:07;;;;;;;1.48;0.90;;;9.40;99.90;;;;;;4396220;32;20054;-69
2021/11/21 05:04:34;;;;;;;3.53;1.35;;;9.40;99.90;;;;;;4394204;32;20426;-70
2021/11/21 05:07:00;;;;;;;1.35;0.90;;;9.50;99.90;;;;;;4400468;32;20073;-68
2021/11/21 05:09:25;;;;;;;2.55;0.88;;;9.50;99.90;;;;;;4394795;32;20098;-70
2021/11/21 05:11:51;;;;;;;2.28;1.05;;;9.50;99.90;;;;;;4397575;32;20054;-70
2021/11/21 05:14:18;;;;;;;0.82;0.82;;;9.40;99.90;;;;;;4397130;32;20058;-69
2021/11/21 05:16:45;;;;;;;3.12;1.30;;;9.40;99.90;;;;;;4398934;32;20055;-70
2021/11/21 05:19:10;;;;;;;0.57;0.57;;;9.40;99.90;;;;;;4395190;32;20054;-70
2021/11/21 05:21:36;;;;;;;1.65;0.90;;;9.50;99.90;;;;;;4394288;32;20082;-69
2021/11/21 05:24:02;;;;;;;1.05;1.05;;;9.50;99.90;;;;;;4396003;32;20058;-69
2021/11/21 05:26:27;;;;;;;2.03;1.10;;;9.50;99.90;;;;;;4398510;32;20067;-69
2021/11/21 05:28:54;;;;;;;1.92;0.90;;;9.40;99.90;;;;;;4396851;32;20129;-70
2021/11/21 05:31:21;;;;;;;3.90;1.67;;;9.40;99.90;;;;;;4396665;32;20102;-69
2021/11/21 05:33:46;;;;;;;0.50;0.50;;;9.40;99.90;;;;;;4398539;32;20445;-69
2021/11/21 05:36:12;;;;;;;0.73;0.73;;;9.40;99.90;;;;;;4399789;32;20129;-69
2021/11/21 05:38:38;;;;;;;2.75;0.82;;;9.30;99.90;;;;;;4396225;32;20102;-69
2021/11/21 05:41:04;;;;;;;1.87;1.40;;;9.40;99.90;;;;;;4397860;32;20098;-70
2021/11/21 05:43:29;;;;;;;3.62;0.70;;;9.40;99.90;;;;;;4397560;32;20098;-70
2021/11/21 05:45:55;;;;;;;1.87;1.30;;;9.40;99.90;;;;;;4399389;32;20116;-70
2021/11/21 05:48:21;;;;;;;0.70;0.50;;;9.40;99.90;;;;;;4400209;32;20512;-69
2021/11/21 05:50:46;;;;;;;1.08;0.90;;;9.40;99.90;;;;;;4398355;32;20074;-70
2021/11/21 05:53:12;;;;;;;1.98;1.00;;;9.30;99.90;;;;;;4401689;32;20073;-69
2021/11/21 05:55:37;;;;;;;0.55;0.55;;;9.30;99.90;;;;;;4398384;32;20066;-69
2021/11/21 05:58:03;;;;;;;2.85;1.23;;;9.30;99.90;;;;;;4398491;32;20078;-70
2021/11/21 06:00:29;;;;;;;0.52;0.52;;;9.20;99.90;;;;;;4399994;32;20109;-69
2021/11/21 06:02:55;;;;;;;4.18;1.40;;;9.30;99.90;;;;;;4398258;32;20432;-70
2021/11/21 06:05:20;;;;;;;3.95;1.20;;;9.30;99.90;;;;;;4399158;32;20091;-69
2021/11/21 06:07:46;;;;;;;0.88;0.88;;;9.30;99.90;;;;;;4401062;32;20062;-69
2021/11/21 06:10:12;;;;;;;5.10;0.88;;;9.30;99.90;;;;;;4400361;32;20066;-70
2021/11/21 06:12:39;;;;;;;0.82;0.70;;;9.30;99.90;;;;;;4397781;32;20085;-70
2021/11/21 06:15:06;;;;;;;1.33;1.23;;;9.30;99.90;;;;;;4403246;32;20497;-69
2021/11/21 06:17:32;;;;;;;1.77;0.90;;;9.30;99.90;;;;;;4398803;32;20528;-69
2021/11/21 06:19:58;;;;;;;6.30;2.85;;;9.30;99.90;;;;;;4397182;32;20086;-69
2021/11/21 06:22:24;;;;;;;0.60;0.60;;;9.30;99.90;;;;;;4396549;32;20078;-69
2021/11/21 06:24:49;;;;;;;2.20;1.17;;;9.30;99.90;;;;;;4395778;32;20490;-69
2021/11/21 06:27:15;;;;;;;2.15;1.23;;;9.40;99.90;;;;;;4402041;32;20097;-68
2021/11/21 06:29:41;;;;;;;0.70;0.70;;;9.40;99.90;;;;;;4397014;32;20152;-69
2021/11/21 06:32:07;;;;;;;2.50;1.00;;;9.30;99.90;;;;;;4399984;32;20069;-70
2021/11/21 06:34:34;;;;;;;2.80;1.12;;;9.30;99.90;;;;;;4397478;32;20083;-69
2021/11/21 06:37:01;;;;;;;2.00;1.10;;;9.20;99.90;;;;;;4396306;32;20074;-70
2021/11/21 06:39:28;;;;;;;4.18;1.45;;;9.30;99.90;;;;;;4399121;32;20062;-70
2021/11/21 06:41:55;;;;;;;1.70;1.08;;;9.30;99.90;;;;;;4400674;32;20073;-69
2021/11/21 06:44:21;;;;;;;1.10;0.85;;;9.30;99.90;;;;;;4395110;32;20511;-70
2021/11/21 06:46:47;;;;;;;0.82;0.82;;;9.20;99.90;;;;;;4395914;32;20121;-70
2021/11/21 06:49:13;;;;;;;2.28;0.95;;;9.20;99.90;;;;;;4396975;32;20077;-70
2021/11/21 06:51:42;;;;;;;3.92;1.12;;;9.20;99.90;;;;;;4399925;32;20074;-69
2021/11/21 06:54:10;;;;;;;4.07;2.08;;;9.20;99.90;;;;;;4397144;32;20117;-69
2021/11/21 06:56:37;;;;;;;5.05;1.12;;;9.20;99.90;;;;;;4401404;32;20090;-70
2021/11/21 06:59:03;;;;;;;1.15;1.05;;;9.20;99.90;;;;;;4397391;32;20122;-69
2021/11/21 07:01:28;;;;;;;3.10;1.27;;;9.20;99.90;;;;;;4399547;32;20065;-69
2021/11/21 07:03:54;;;;;;;1.12;0.70;;;9.20;99.90;;;;;;4396066;32;20070;-68
2021/11/21 07:06:39;;;;;;;1.90;1.20;;;9.20;99.90;;;;;;4395392;32;20141;-69
2021/11/21 07:09:07;;;;;;;3.28;1.62;;;9.20;99.90;;;;;;4397697;32;20128;-69
2021/11/21 07:11:33;;;;;;;0.40;0.40;;;9.20;99.90;;;;;;4396434;32;20153;-69
2021/11/21 07:13:59;;;;;;;1.10;0.95;;;9.20;99.90;;;;;;4396708;32;20070;-68
2021/11/21 07:16:25;;;;;;;0.62;0.62;;;9.20;99.90;;;;;;4400158;32;20086;-69
2021/11/21 07:18:50;;;;;;;1.55;1.15;;;9.20;99.90;;;;;;4397138;32;20399;-69
2021/11/21 07:21:16;;;;;;;1.87;1.15;;;9.20;99.90;;;;;;4399281;32;20105;-69
2021/11/21 07:23:42;;;;;;;1.83;0.82;;;9.20;99.90;;;;;;4397341;32;20059;-69
2021/11/21 07:26:08;;;;;;;3.78;1.25;;;9.30;99.90;;;;;;4400365;32;20120;-69
2021/11/21 07:28:33;;;;;;;1.25;0.90;;;9.20;99.90;;;;;;4395634;32;20124;-69
2021/11/21 07:30:59;;;;;;;1.20;0.62;;;9.10;99.90;;;;;;4392383;32;20081;-69
2021/11/21 07:33:25;;;;;;;0.90;0.90;;;9.10;99.90;;;;;;4396757;32;20074;-68
2021/11/21 07:35:53;;;;;;;2.83;1.10;;;9.10;99.90;;;;;;4405527;32;20400;-69
2021/11/21 07:38:20;;;;;;;0.65;0.65;;;9.10;99.90;;;;;;4396967;32;20593;-68
2021/11/21 07:40:46;;;;;;;1.45;1.08;;;9.10;99.90;;;;;;4400951;32;20448;-69
2021/11/21 07:43:13;;;;;;;4.95;0.93;;;9.00;99.90;;;;;;4395614;32;20499;-69
2021/11/21 07:45:38;;;;;;;0.43;0.43;;;9.00;99.90;;;;;;4395933;32;20181;-69
2021/11/21 07:48:04;;;;;;;2.37;1.02;;;9.00;99.90;;;;;;4391923;32;20580;-69
2021/11/21 07:50:30;;;;;;;1.42;1.00;;;9.10;99.90;;;;;;4394398;32;20503;-69
2021/11/21 07:52:55;;;;;;;2.08;1.25;;;9.10;99.90;;;;;;4398882;32;20078;-70
2021/11/21 07:55:21;;;;;;;1.48;1.20;;;9.10;99.90;;;;;;4399072;32;20148;-69
2021/11/21 07:57:47;;;;;;;1.20;1.08;;;9.00;99.90;;;;;;4397309;32;20134;-70
2021/11/21 08:00:13;;;;;;;2.12;1.30;;;9.10;99.90;;;;;;4400478;32;20472;-69
2021/11/21 08:02:39;;;;;;;0.70;0.70;;;9.10;99.90;;;;;;4397448;32;20085;-70
2021/11/21 08:05:06;;;;;;;2.75;1.58;;;9.00;99.90;;;;;;4397502;32;20414;-68
2021/11/21 08:07:32;;;;;;;1.15;0.93;;;9.00;99.90;;;;;;4398903;32;20158;-68
2021/11/21 08:10:01;;;;;;;1.10;0.80;;;9.00;99.90;;;;;;4394987;32;20089;-68
2021/11/21 08:12:26;;;;;;;1.02;0.50;;;9.00;99.90;;;;;;4395196;32;20066;-68
2021/11/21 08:14:52;;;;;;;2.80;1.12;;;9.00;99.90;;;;;;4395394;32;20456;-68
2021/11/21 08:17:18;;;;;;;2.15;1.05;;;9.00;99.90;;;;;;4396286;32;20083;-68
2021/11/21 08:19:45;;;;;;;1.17;1.08;;;9.00;99.90;;;;;;4395135;32;20097;-68
2021/11/21 08:22:11;;;;;;;0.73;0.70;;;9.00;99.90;;;;;;4395613;32;20074;-68
2021/11/21 08:24:36;;;;;;;4.90;1.50;;;9.00;99.90;;;;;;4395135;32;20140;-69
2021/11/21 08:27:02;;;;;;;5.68;1.23;;;8.90;99.90;;;;;;4398311;32;20078;-68
2021/11/21 08:29:28;;;;;;;1.00;0.95;;;8.90;99.90;;;;;;4392480;32;20074;-68
2021/11/21 08:31:54;;;;;;;6.00;1.73;;;8.80;99.90;;;;;;4398887;32;20087;-68
2021/11/21 08:34:19;;;;;;;0.95;0.85;;;8.80;99.90;;;;;;4394142;32;20104;-68
2021/11/21 08:36:45;;;;;;;0.73;0.62;;;8.80;99.90;;;;;;4394459;32;20125;-68
2021/11/21 08:39:11;;;;;;;1.70;1.05;;;8.70;99.90;;;;;;4395565;32;20086;-69
2021/11/21 08:41:37;;;;;;;0.60;0.60;;;8.70;99.90;;;;;;4397834;32;20143;-68
2021/11/21 08:44:02;;;;;;;2.58;1.48;;;8.80;99.90;;;;;;4392254;32;20552;-68
2021/11/21 08:46:28;;;;;;;1.52;0.98;;;8.90;99.90;;;;;;4393857;32;20087;-68
2021/11/21 08:48:55;;;;;;;2.00;1.05;;;8.90;99.90;;;;;;4392676;32;20097;-68
2021/11/21 08:51:21;;;;;;;1.70;0.80;;;8.80;99.90;;;;;;4393633;32;20062;-68
2021/11/21 08:53:48;;;;;;;2.53;1.20;;;8.80;99.90;;;;;;4391953;32;20078;-68
2021/11/21 08:56:15;;;;;;;2.35;1.20;;;8.80;99.90;;;;;;4396877;32;20074;-69
2021/11/21 08:58:41;;;;;;;0.88;0.70;;;8.80;99.90;;;;;;4395277;32;20070;-68
2021/11/21 09:01:06;;;;;;;0.95;0.95;;;8.80;99.90;;;;;;4397413;32;20093;-68
2021/11/21 09:03:32;;;;;;;0.65;0.65;;;8.80;99.90;;;;;;4394871;32;20133;-68
2021/11/21 09:05:58;;;;;;;1.83;1.33;;;8.70;99.90;;;;;;4400273;32;20062;-68
2021/11/21 09:08:25;;;;;;;1.10;1.00;;;8.80;99.90;;;;;;4394265;32;20061;-68
2021/11/21 09:10:51;;;;;;;0.70;0.70;;;8.70;99.90;;;;;;4398788;32;20122;-68
2021/11/21 09:13:17;;;;;;;2.20;1.45;;;8.70;99.90;;;;;;4392890;32;20511;-68
2021/11/21 09:15:43;;;;;;;2.85;0.73;;;8.60;99.90;;;;;;4393140;32;20090;-70
2021/11/21 09:18:08;;;;;;;1.95;1.02;;;8.60;99.90;;;;;;4394898;32;20129;-68
2021/11/21 09:20:34;;;;;;;2.20;0.82;;;8.60;99.90;;;;;;4398878;32;20082;-68
2021/11/21 09:23:02;;;;;;;1.37;0.75;;;8.60;99.90;;;;;;4394882;32;20145;-68
2021/11/21 09:25:28;;;;;;;1.42;0.88;;;8.70;99.90;;;;;;4393643;32;20201;-68
2021/11/21 09:27:54;;;;;;;0.98;0.95;;;8.60;99.90;;;;;;4398266;32;20128;-68
2021/11/21 09:30:22;;;;;;;0.75;0.68;;;8.70;99.90;;;;;;4392799;32;20097;-68
2021/11/21 09:32:48;;;;;;;1.67;1.00;;;8.70;99.90;;;;;;4395699;32;20077;-68
2021/11/21 09:35:13;;;;;;;16.02;1.02;;;8.70;99.90;;;;;;4394482;32;20085;-68
2021/11/21 09:37:39;;;;;;;0.73;0.70;;;8.70;99.90;;;;;;4391069;32;20095;-68
2021/11/21 09:40:05;;;;;;;2.58;1.10;;;8.70;99.90;;;;;;4392727;32;20091;-68
2021/11/21 09:42:31;;;;;;;0.50;0.50;;;8.70;99.90;;;;;;4394849;32;20137;-68
2021/11/21 09:44:56;;;;;;;2.22;1.00;;;8.70;99.90;;;;;;4396709;32;20062;-68
2021/11/21 09:47:22;;;;;;;1.62;0.93;;;8.70;99.90;;;;;;4394630;32;20086;-68
2021/11/21 09:49:47;;;;;;;0.77;0.77;;;8.70;99.90;;;;;;4397990;32;20446;-69
2021/11/21 09:52:15;;;;;;;0.90;0.85;;;8.70;99.90;;;;;;4400804;32;20075;-68
2021/11/21 09:54:40;;;;;;;2.53;0.62;;;8.70;99.90;;;;;;4395307;32;20124;-68
2021/11/21 09:57:06;;;;;;;0.50;0.50;;;8.70;99.90;;;;;;4398702;32;20082;-69
2021/11/21 09:59:50;;;;;;;4.35;1.98;;;8.70;99.90;;;;;;4394088;32;20073;-69
2021/11/21 10:02:21;;;;;;;0.32;0.32;;;8.70;99.90;;;;;;4400658;32;20082;-68
2021/11/21 10:04:47;;;;;;;0.75;0.75;;;8.70;99.90;;;;;;4393398;32;20219;-68
2021/11/21 10:07:31;;;;;;;1.05;0.93;;;8.80;99.90;;;;;;4398515;32;20082;-69
2021/11/21 10:09:58;;;;;;;0.52;0.52;;;8.80;99.90;;;;;;4380277;32;20157;-69
2021/11/21 10:12:25;;;;;;;0.70;0.70;;;8.80;99.90;;;;;;4395223;32;20086;-69
2021/11/21 10:14:56;;;;;;;0.93;0.90;;;8.80;99.90;;;;;;4395233;32;20090;-69
2021/11/21 10:17:25;;;;;;;2.55;0.82;;;8.80;99.90;;;;;;4395611;32;20462;-69
2021/11/21 10:20:09;;;;;;;3.10;0.98;;;8.80;99.90;;;;;;4395180;32;20077;-69
2021/11/21 10:22:56;;;;;;;1.10;0.93;;;8.80;99.90;;;;;;4402980;32;20058;-68
2021/11/21 10:25:41;;;;;;;4.80;1.05;;;8.80;99.90;;;;;;4388853;32;20432;-68
2021/11/21 10:28:29;;;;;;;1.08;0.70;;;8.90;99.90;;;;;;4383593;32;20119;-68
2021/11/21 10:30:58;;;;;;;0.52;0.52;;;8.90;99.90;;;;;;4387511;32;20070;-68
2021/11/21 10:33:29;;;;;;;1.92;0.77;;;8.80;99.90;;;;;;4395673;32;20087;-68
2021/11/21 10:35:57;;;;;;;0.73;0.73;;;8.80;99.90;;;;;;4397615;32;20062;-68
2021/11/21 10:38:35;;;;;;;0.47;0.47;;;8.80;99.90;;;;;;4396671;32;20121;-68
2021/11/21 10:41:06;;;;;;;0.45;0.45;;;8.80;99.90;;;;;;4400935;32;20058;-68
2021/11/21 10:43:39;;;;;;;0.68;0.68;;;8.90;99.90;;;;;;4397787;32;20547;-68
2021/11/21 10:46:05;;;;;;;0.62;0.62;;;8.80;99.90;;;;;;4397330;32;20094;-68
2021/11/21 10:48:32;;;;;;;0.80;0.80;;;8.90;99.90;;;;;;4400744;32;20094;-69
2021/11/21 10:50:58;;;;;;;2.25;0.80;;;8.90;99.90;;;;;;4399088;32;20163;-68
2021/11/21 10:53:23;;;;;;;0.55;0.55;;;9.00;99.90;;;;;;4397352;32;20093;-68
2021/11/21 10:56:09;;;;;;;1.00;0.90;;;9.00;99.90;;;;;;4400098;32;21029;-68
2021/11/21 10:58:51;;;;;;;0.65;0.65;;;9.10;99.90;;;;;;4397124;32;20095;-68
2021/11/21 11:01:21;;;;;;;16.30;0.82;;;9.10;99.90;;;;;;4399716;32;20069;-68
2021/11/21 11:04:09;;;;;;;0.80;0.77;;;9.00;99.90;;;;;;4396072;32;20078;-68
2021/11/21 11:06:35;;;;;;;0.62;0.62;;;9.00;99.90;;;;;;4384787;32;20070;-68
2021/11/21 11:09:20;;;;;;;1.08;0.77;;;9.10;99.90;;;;;;4396893;32;20087;-68
2021/11/21 11:11:47;;;;;;;0.95;0.88;;;9.10;99.90;;;;;;4396223;32;20508;-68
2021/11/21 11:14:18;;;;;;;3.75;1.58;;;9.10;99.90;;;;;;4398848;32;20539;-69
2021/11/21 11:16:45;;;;;;;0.50;0.50;;;9.10;99.90;;;;;;4397816;32;20070;-69
2021/11/21 11:19:14;;;;;;;0.68;0.68;;;9.10;99.90;;;;;;4398055;32;20074;-69
2021/11/21 11:21:41;;;;;;;0.65;0.65;;;9.20;99.90;;;;;;4396588;32;20074;-69
2021/11/21 11:24:06;;;;;;;4.60;0.98;;;9.20;99.90;;;;;;4398304;32;20095;-69
2021/11/21 11:26:34;;;;;;;12.13;1.08;;;9.30;99.90;;;;;;4399177;32;20091;-69
2021/11/21 11:29:03;;;;;;;0.75;0.75;;;9.30;99.90;;;;;;4397635;32;20094;-69
2021/11/21 11:31:32;;;;;;;0.88;0.73;;;9.40;99.90;;;;;;4400218;32;20074;-69
2021/11/21 11:34:00;;;;;;;1.17;0.68;;;9.30;99.90;;;;;;4395120;32;20136;-69
2021/11/21 11:36:29;;;;;;;9.95;0.77;;;9.40;99.90;;;;;;4397786;32;20061;-69
2021/11/21 11:39:13;;;;;;;0.68;0.68;;;9.40;99.90;;;;;;4391347;32;20082;-69
2021/11/21 11:41:39;;;;;;;0.75;0.50;;;9.40;99.90;;;;;;4399585;32;20086;-69
2021/11/21 11:44:06;;;;;;;0.57;0.57;;;9.40;99.90;;;;;;4394915;32;20057;-69
2021/11/21 11:46:34;;;;;;;5.68;1.15;;;9.40;99.90;;;;;;4400976;32;20112;-69
2021/11/21 11:49:04;;;;;;;0.68;0.65;;;9.40;99.90;;;;;;4398684;32;20587;-70
2021/11/21 11:51:35;;;;;;;0.65;0.65;;;9.40;99.90;;;;;;4402287;32;20089;-69
2021/11/21 11:54:21;;;;;;;;;;;9.40;99.90;;;;;;4398000;32;20369;-69
2021/11/21 11:56:52;;;;;;;0.68;0.68;;;9.40;99.90;;;;;;4381985;32;19953;-69
2021/11/21 11:59:39;;;;;;;0.75;0.75;;;9.40;99.90;;;;;;4394979;32;20500;-69
2021/11/21 12:02:08;;;;;;;1.37;0.77;;;9.40;99.90;;;;;;4384728;32;20090;-70
2021/11/21 12:04:36;;;;;;;2.60;0.65;;;9.50;99.90;;;;;;4393811;32;20069;-70
2021/11/21 12:07:18;;;;;;;0.50;0.50;;;9.50;99.90;;;;;;4395996;32;20074;-71
2021/11/21 12:09:59;;;;;;;0.57;0.57;;;9.50;99.90;;;;;;4395048;32;20070;-70
2021/11/21 12:13:05;;;;;;;2.20;0.93;;;9.50;99.90;;;;;;4398841;32;20094;-69
2021/11/21 12:15:51;;;;;;;0.88;0.88;;;9.50;99.90;;;;;;4385457;32;20077;-70
2021/11/21 12:18:18;;;;;;;1.83;0.85;;;9.60;99.90;;;;;;4396249;32;20086;-70
2021/11/21 12:20:54;;;;;;;0.40;0.40;;;9.70;99.90;;;;;;4396521;32;20066;-70
2021/11/21 12:23:41;;;;;;;0.40;0.40;;;9.60;99.90;;;;;;4394706;32;20089;-70
2021/11/21 12:26:27;;;;;;;1.27;0.88;;;9.70;99.90;;;;;;4381419;32;20066;-69
2021/11/21 12:29:06;;;;;;;0.50;0.50;;;9.70;99.90;;;;;;4397022;32;20074;-70
2021/11/21 12:31:36;;;;;;;1.35;1.02;;;9.60;99.90;;;;;;4397429;32;20058;-68
2021/11/21 12:34:38;;;;;;;0.65;0.60;;;9.60;99.90;;;;;;4397753;32;20089;-70
2021/11/21 12:37:09;;;;;;;0.85;0.65;;;9.60;99.90;;;;;;4381623;32;20137;-69
2021/11/21 12:39:35;;;;;;;;;;;9.50;99.90;;;;;;4395116;32;20140;-69
2021/11/21 12:42:03;;;;;;;0.47;0.47;;;9.60;99.90;;;;;;4397233;32;19960;-70
2021/11/21 12:44:29;;;;;;;0.70;0.70;;;9.50;99.90;;;;;;4399289;32;20118;-70
2021/11/21 12:46:59;;;;;;;0.93;0.85;;;9.60;99.90;;;;;;4396930;32;20477;-70
2021/11/21 12:49:25;;;;;;;2.00;0.60;;;9.50;99.90;;;;;;4398543;32;20079;-69
2021/11/21 12:52:09;;;;;;;3.03;0.75;;;9.50;99.90;;;;;;4399575;32;20515;-70
2021/11/21 12:54:36;;;;;;;1.35;1.10;;;9.40;99.90;;;;;;4399327;32;20101;-70
2021/11/21 12:57:03;;;;;;;1.40;0.85;;;9.40;99.90;;;;;;4398289;32;20061;-70
2021/11/21 12:59:50;;;;;;;0.85;0.70;;;9.40;99.90;;;;;;4397047;32;20125;-69